sensor_id;sensor_type;location;lat;lon;timestamp;pressure;altitude;pressure_sealevel;temperature;humidity
54994;BME280;40891;47.242;8.648;2023-03-19T00:01:05;96098.31;;;13.53;49.86
54994;BME280;40891;47.242;8.648;2023-03-19T00:03:32;96098.94;;;13.57;50.23
54994;BME280;40891;47.242;8.648;2023-03-19T00:05:57;96103.91;;;13.53;48.68
54994;BME280;40891;47.242;8.648;2023-03-19T00:08:23;96110.75;;;13.52;49.54
54994;BME280;40891;47.242;8.648;2023-03-19T00:10:48;96110.94;;;13.49;48.86
54994;BME280;40891;47.242;8.648;2023-03-19T00:13:14;96108.16;;;13.49;49.10
54994;BME280;40891;47.242;8.648;2023-03-19T00:15:39;96115.09;;;13.53;48.23
54994;BME280;40891;47.242;8.648;2023-03-19T00:18:05;96118.66;;;13.54;49.57
54994;BME280;40891;47.242;8.648;2023-03-19T00:20:32;96124.72;;;13.52;50.02
54994;BME280;40891;47.242;8.648;2023-03-19T00:22:57;96127.31;;;13.41;50.51
54994;BME280;40891;47.242;8.648;2023-03-19T00:25:22;96126.25;;;13.39;50.90
54994;BME280;40891;47.242;8.648;2023-03-19T00:27:48;96127.97;;;13.36;51.90
54994;BME280;40891;47.242;8.648;2023-03-19T00:30:13;96131.41;;;13.31;52.17
54994;BME280;40891;47.242;8.648;2023-03-19T00:32:39;96130.84;;;13.27;51.62
54994;BME280;40891;47.242;8.648;2023-03-19T00:35:06;96139.88;;;13.22;53.52
54994;BME280;40891;47.242;8.648;2023-03-19T00:37:33;96130.78;;;13.13;52.08
54994;BME280;40891;47.242;8.648;2023-03-19T00:39:59;96144.91;;;13.09;53.30
54994;BME280;40891;47.242;8.648;2023-03-19T00:42:24;96150.34;;;13.04;51.95
54994;BME280;40891;47.242;8.648;2023-03-19T00:44:50;96158.25;;;13.05;51.46
54994;BME280;40891;47.242;8.648;2023-03-19T00:47:15;96148.31;;;13.04;51.71
54994;BME280;40891;47.242;8.648;2023-03-19T00:49:41;96152.38;;;13.03;50.75
54994;BME280;40891;47.242;8.648;2023-03-19T00:52:06;96157.78;;;13.07;51.92
54994;BME280;40891;47.242;8.648;2023-03-19T00:54:32;96152.38;;;13.03;50.81
54994;BME280;40891;47.242;8.648;2023-03-19T00:56:57;96157.63;;;13.10;50.22
54994;BME280;40891;47.242;8.648;2023-03-19T00:59:23;96145.66;;;13.33;47.25
54994;BME280;40891;47.242;8.648;2023-03-19T01:01:49;96152.81;;;13.34;48.73
54994;BME280;40891;47.242;8.648;2023-03-19T01:04:16;96154.22;;;13.30;48.34
54994;BME280;40891;47.242;8.648;2023-03-19T01:06:42;96157.00;;;13.30;48.80
54994;BME280;40891;47.242;8.648;2023-03-19T01:09:08;96156.25;;;13.29;49.26
54994;BME280;40891;47.242;8.648;2023-03-19T01:11:33;96153.75;;;13.31;48.36
54994;BME280;40891;47.242;8.648;2023-03-19T01:13:59;96163.00;;;13.37;47.80
54994;BME280;40891;47.242;8.648;2023-03-19T01:16:25;96170.50;;;13.31;49.77
54994;BME280;40891;47.242;8.648;2023-03-19T01:18:51;96160.47;;;13.25;49.31
54994;BME280;40891;47.242;8.648;2023-03-19T01:21:17;96162.19;;;13.22;49.64
54994;BME280;40891;47.242;8.648;2023-03-19T01:23:43;96172.59;;;13.22;48.75
54994;BME280;40891;47.242;8.648;2023-03-19T01:26:08;96171.16;;;13.26;46.56
54994;BME280;40891;47.242;8.648;2023-03-19T01:28:34;96173.19;;;13.26;48.63
54994;BME280;40891;47.242;8.648;2023-03-19T01:31:00;96179.25;;;13.24;48.63
54994;BME280;40891;47.242;8.648;2023-03-19T01:33:27;96180.47;;;13.23;47.06
54994;BME280;40891;47.242;8.648;2023-03-19T01:35:52;96169.59;;;13.25;47.91
54994;BME280;40891;47.242;8.648;2023-03-19T01:38:18;96176.75;;;13.26;46.78
54994;BME280;40891;47.242;8.648;2023-03-19T01:40:47;96167.44;;;13.29;47.41
54994;BME280;40891;47.242;8.648;2023-03-19T01:43:17;96178.59;;;13.29;46.86
54994;BME280;40891;47.242;8.648;2023-03-19T01:45:44;96177.22;;;13.25;48.01
54994;BME280;40891;47.242;8.648;2023-03-19T01:48:22;96169.94;;;13.27;47.58
54994;BME280;40891;47.242;8.648;2023-03-19T01:50:50;96170.03;;;13.33;46.96
54994;BME280;40891;47.242;8.648;2023-03-19T01:53:20;96178.41;;;13.33;48.97
54994;BME280;40891;47.242;8.648;2023-03-19T01:55:47;96171.66;;;13.25;48.31
54994;BME280;40891;47.242;8.648;2023-03-19T01:58:13;96174.72;;;13.27;49.96
54994;BME280;40891;47.242;8.648;2023-03-19T02:00:39;96177.41;;;13.21;47.46
54994;BME280;40891;47.242;8.648;2023-03-19T02:03:05;96173.94;;;13.26;47.75
54994;BME280;40891;47.242;8.648;2023-03-19T02:05:32;96175.97;;;13.26;48.13
54994;BME280;40891;47.242;8.648;2023-03-19T02:08:02;96178.41;;;13.33;47.53
54994;BME280;40891;47.242;8.648;2023-03-19T02:10:29;96175.53;;;13.42;46.70
54994;BME280;40891;47.242;8.648;2023-03-19T02:12:55;96176.56;;;13.30;47.48
54994;BME280;40891;47.242;8.648;2023-03-19T02:15:21;96176.69;;;13.35;48.42
54994;BME280;40891;47.242;8.648;2023-03-19T02:17:46;96180.13;;;13.30;46.87
54994;BME280;40891;47.242;8.648;2023-03-19T02:20:39;96175.69;;;13.24;52.18
54994;BME280;40891;47.242;8.648;2023-03-19T02:28:14;96180.69;;;12.87;53.03
54994;BME280;40891;47.242;8.648;2023-03-19T02:30:41;96191.56;;;12.76;55.35
54994;BME280;40891;47.242;8.648;2023-03-19T02:33:11;96185.09;;;12.70;56.11
54994;BME280;40891;47.242;8.648;2023-03-19T02:35:37;96192.44;;;12.91;51.49
54994;BME280;40891;47.242;8.648;2023-03-19T02:38:04;96190.22;;;12.95;49.01
54994;BME280;40891;47.242;8.648;2023-03-19T02:40:33;96187.09;;;13.02;48.51
54994;BME280;40891;47.242;8.648;2023-03-19T02:43:00;96194.88;;;12.98;48.36
54994;BME280;40891;47.242;8.648;2023-03-19T02:45:28;96193.63;;;12.99;48.66
54994;BME280;40891;47.242;8.648;2023-03-19T02:47:54;96192.88;;;12.98;49.20
54994;BME280;40891;47.242;8.648;2023-03-19T02:50:19;96196.28;;;12.93;49.62
54994;BME280;40891;47.242;8.648;2023-03-19T02:52:45;96195.22;;;12.91;49.33
54994;BME280;40891;47.242;8.648;2023-03-19T02:55:11;96199.53;;;12.92;48.89
54994;BME280;40891;47.242;8.648;2023-03-19T02:57:36;96186.22;;;12.96;49.18
54994;BME280;40891;47.242;8.648;2023-03-19T03:00:03;96197.81;;;12.94;49.26
54994;BME280;40891;47.242;8.648;2023-03-19T03:02:29;96203.94;;;12.84;49.08
54994;BME280;40891;47.242;8.648;2023-03-19T03:04:55;96202.38;;;12.83;48.84
54994;BME280;40891;47.242;8.648;2023-03-19T03:07:20;96206.69;;;12.93;49.22
54994;BME280;40891;47.242;8.648;2023-03-19T03:09:46;96198.50;;;12.89;49.48
54994;BME280;40891;47.242;8.648;2023-03-19T03:12:11;96198.41;;;12.75;49.53
54994;BME280;40891;47.242;8.648;2023-03-19T03:14:36;96199.28;;;12.81;49.49
54994;BME280;40891;47.242;8.648;2023-03-19T03:17:02;96211.03;;;12.85;48.73
54994;BME280;40891;47.242;8.648;2023-03-19T03:19:27;96209.84;;;12.77;50.26
54994;BME280;40891;47.242;8.648;2023-03-19T03:21:53;96209.22;;;12.82;49.93
54994;BME280;40891;47.242;8.648;2023-03-19T03:24:18;96215.13;;;12.75;50.25
54994;BME280;40891;47.242;8.648;2023-03-19T03:26:43;96209.69;;;12.80;49.13
54994;BME280;40891;47.242;8.648;2023-03-19T03:29:09;96212.94;;;12.79;49.10
54994;BME280;40891;47.242;8.648;2023-03-19T03:31:35;96206.16;;;12.71;50.22
54994;BME280;40891;47.242;8.648;2023-03-19T03:34:01;96208.59;;;12.87;49.81
54994;BME280;40891;47.242;8.648;2023-03-19T03:36:27;96209.97;;;12.82;49.31
54994;BME280;40891;47.242;8.648;2023-03-19T03:38:53;96214.22;;;12.69;50.01
54994;BME280;40891;47.242;8.648;2023-03-19T03:41:18;96210.50;;;12.72;50.00
54994;BME280;40891;47.242;8.648;2023-03-19T03:43:43;96215.56;;;12.82;49.93
54994;BME280;40891;47.242;8.648;2023-03-19T03:46:09;96221.94;;;12.74;50.18
54994;BME280;40891;47.242;8.648;2023-03-19T03:48:34;96215.78;;;12.70;50.30
54994;BME280;40891;47.242;8.648;2023-03-19T03:51:00;96219.19;;;12.65;50.39
54994;BME280;40891;47.242;8.648;2023-03-19T03:53:26;96229.13;;;12.66;49.83
54994;BME280;40891;47.242;8.648;2023-03-19T03:55:51;96219.78;;;12.69;49.42
54994;BME280;40891;47.242;8.648;2023-03-19T03:58:17;96225.38;;;12.69;50.53
54994;BME280;40891;47.242;8.648;2023-03-19T04:00:43;96223.22;;;12.64;50.28
54994;BME280;40891;47.242;8.648;2023-03-19T04:03:08;96231.00;;;12.60;51.50
54994;BME280;40891;47.242;8.648;2023-03-19T04:05:34;96230.09;;;12.54;51.89
54994;BME280;40891;47.242;8.648;2023-03-19T04:08:00;96229.88;;;12.66;50.81
54994;BME280;40891;47.242;8.648;2023-03-19T04:10:25;96232.84;;;12.63;50.45
54994;BME280;40891;47.242;8.648;2023-03-19T04:12:51;96236.88;;;12.62;50.74
54994;BME280;40891;47.242;8.648;2023-03-19T04:15:17;96235.00;;;12.68;51.60
54994;BME280;40891;47.242;8.648;2023-03-19T04:17:43;96237.63;;;12.71;50.83
54994;BME280;40891;47.242;8.648;2023-03-19T04:20:08;96241.22;;;12.63;50.75
54994;BME280;40891;47.242;8.648;2023-03-19T04:22:35;96237.50;;;12.66;51.53
54994;BME280;40891;47.242;8.648;2023-03-19T04:25:01;96240.59;;;12.68;52.59
54994;BME280;40891;47.242;8.648;2023-03-19T04:27:26;96246.00;;;12.62;53.42
54994;BME280;40891;47.242;8.648;2023-03-19T04:29:51;96247.44;;;12.58;53.32
54994;BME280;40891;47.242;8.648;2023-03-19T04:32:17;96243.41;;;12.50;52.75
54994;BME280;40891;47.242;8.648;2023-03-19T04:34:42;96249.31;;;12.43;54.78
54994;BME280;40891;47.242;8.648;2023-03-19T04:37:08;96254.44;;;12.26;56.14
54994;BME280;40891;47.242;8.648;2023-03-19T04:39:36;96254.63;;;12.22;56.70
54994;BME280;40891;47.242;8.648;2023-03-19T04:42:01;96247.50;;;12.21;55.10
54994;BME280;40891;47.242;8.648;2023-03-19T04:44:28;96254.94;;;12.15;55.53
54994;BME280;40891;47.242;8.648;2023-03-19T04:46:55;96253.25;;;12.18;55.76
54994;BME280;40891;47.242;8.648;2023-03-19T04:49:20;96252.16;;;12.15;56.06
54994;BME280;40891;47.242;8.648;2023-03-19T04:51:46;96252.78;;;12.10;55.78
54994;BME280;40891;47.242;8.648;2023-03-19T04:54:11;96252.00;;;12.10;55.13
54994;BME280;40891;47.242;8.648;2023-03-19T04:56:36;96253.41;;;12.05;55.79
54994;BME280;40891;47.242;8.648;2023-03-19T04:59:03;96256.66;;;12.04;55.99
54994;BME280;40891;47.242;8.648;2023-03-19T05:01:28;96256.34;;;12.02;55.30
54994;BME280;40891;47.242;8.648;2023-03-19T05:03:54;96265.94;;;12.01;55.97
54994;BME280;40891;47.242;8.648;2023-03-19T05:06:19;96262.53;;;11.97;55.69
54994;BME280;40891;47.242;8.648;2023-03-19T05:08:45;96258.97;;;11.96;56.29
54994;BME280;40891;47.242;8.648;2023-03-19T05:11:11;96263.00;;;11.95;56.41
54994;BME280;40891;47.242;8.648;2023-03-19T05:13:36;96264.69;;;11.93;57.28
54994;BME280;40891;47.242;8.648;2023-03-19T05:16:02;96266.41;;;11.90;56.52
54994;BME280;40891;47.242;8.648;2023-03-19T05:18:27;96264.25;;;11.85;57.54
54994;BME280;40891;47.242;8.648;2023-03-19T05:20:53;96264.88;;;11.80;58.43
54994;BME280;40891;47.242;8.648;2023-03-19T05:23:20;96274.91;;;11.78;58.72
54994;BME280;40891;47.242;8.648;2023-03-19T05:25:45;96279.09;;;11.73;59.32
54994;BME280;40891;47.242;8.648;2023-03-19T05:28:12;96275.06;;;11.74;58.47
54994;BME280;40891;47.242;8.648;2023-03-19T05:30:37;96276.31;;;11.82;59.28
54994;BME280;40891;47.242;8.648;2023-03-19T05:33:03;96284.81;;;11.70;60.15
54994;BME280;40891;47.242;8.648;2023-03-19T05:35:29;96289.56;;;11.60;60.04
54994;BME280;40891;47.242;8.648;2023-03-19T05:37:54;96290.47;;;11.57;61.77
54994;BME280;40891;47.242;8.648;2023-03-19T05:40:20;96291.53;;;11.50;61.17
54994;BME280;40891;47.242;8.648;2023-03-19T05:42:47;96288.94;;;11.47;61.80
54994;BME280;40891;47.242;8.648;2023-03-19T05:45:12;96291.72;;;11.47;61.45
54994;BME280;40891;47.242;8.648;2023-03-19T05:47:38;96289.22;;;11.49;62.10
54994;BME280;40891;47.242;8.648;2023-03-19T05:50:05;96301.28;;;11.46;62.91
54994;BME280;40891;47.242;8.648;2023-03-19T05:52:30;96296.63;;;11.43;61.98
54994;BME280;40891;47.242;8.648;2023-03-19T05:54:56;96306.22;;;11.42;63.50
54994;BME280;40891;47.242;8.648;2023-03-19T05:57:21;96294.47;;;11.38;62.46
54994;BME280;40891;47.242;8.648;2023-03-19T05:59:46;96306.22;;;11.42;63.74
54994;BME280;40891;47.242;8.648;2023-03-19T06:02:12;96304.34;;;11.39;63.49
54994;BME280;40891;47.242;8.648;2023-03-19T06:04:37;96308.84;;;11.45;62.13
54994;BME280;40891;47.242;8.648;2023-03-19T06:07:02;96314.00;;;11.56;63.55
54994;BME280;40891;47.242;8.648;2023-03-19T06:09:28;96315.88;;;11.59;63.06
54994;BME280;40891;47.242;8.648;2023-03-19T06:11:54;96312.66;;;11.70;62.29
54994;BME280;40891;47.242;8.648;2023-03-19T06:14:19;96318.56;;;11.99;62.00
54994;BME280;40891;47.242;8.648;2023-03-19T06:16:45;96306.97;;;11.91;61.72
54994;BME280;40891;47.242;8.648;2023-03-19T06:19:10;96315.31;;;11.82;62.01
54994;BME280;40891;47.242;8.648;2023-03-19T06:21:36;96315.00;;;11.80;62.74
54994;BME280;40891;47.242;8.648;2023-03-19T06:24:01;96307.25;;;11.84;62.73
54994;BME280;40891;47.242;8.648;2023-03-19T06:26:26;96311.75;;;11.91;63.72
54994;BME280;40891;47.242;8.648;2023-03-19T06:28:52;96304.78;;;11.86;62.34
54994;BME280;40891;47.242;8.648;2023-03-19T06:31:18;96310.34;;;11.77;63.80
54994;BME280;40891;47.242;8.648;2023-03-19T06:33:44;96315.13;;;11.77;63.29
54994;BME280;40891;47.242;8.648;2023-03-19T06:36:09;96315.91;;;11.77;63.23
54994;BME280;40891;47.242;8.648;2023-03-19T06:38:35;96313.75;;;11.81;63.06
54994;BME280;40891;47.242;8.648;2023-03-19T06:41:01;96315.47;;;11.88;60.96
54994;BME280;40891;47.242;8.648;2023-03-19T06:43:26;96314.09;;;11.92;62.39
54994;BME280;40891;47.242;8.648;2023-03-19T06:45:52;96317.00;;;11.98;62.50
54994;BME280;40891;47.242;8.648;2023-03-19T06:48:17;96321.66;;;12.01;62.45
54994;BME280;40891;47.242;8.648;2023-03-19T06:50:46;96311.78;;;12.09;61.47
54994;BME280;40891;47.242;8.648;2023-03-19T06:53:12;96317.50;;;12.14;60.79
54994;BME280;40891;47.242;8.648;2023-03-19T06:55:38;96318.75;;;12.22;61.53
54994;BME280;40891;47.242;8.648;2023-03-19T06:58:04;96326.31;;;12.40;61.49
54994;BME280;40891;47.242;8.648;2023-03-19T07:00:30;96323.50;;;12.58;62.08
54994;BME280;40891;47.242;8.648;2023-03-19T07:02:55;96323.63;;;12.64;64.33
54994;BME280;40891;47.242;8.648;2023-03-19T07:05:20;96318.97;;;12.79;63.74
54994;BME280;40891;47.242;8.648;2023-03-19T07:07:46;96319.53;;;12.92;65.00
54994;BME280;40891;47.242;8.648;2023-03-19T07:10:11;96324.78;;;12.99;64.65
54994;BME280;40891;47.242;8.648;2023-03-19T07:12:36;96326.03;;;13.07;64.36
54994;BME280;40891;47.242;8.648;2023-03-19T07:15:02;96323.94;;;13.26;61.96
54994;BME280;40891;47.242;8.648;2023-03-19T07:17:29;96320.66;;;13.36;62.17
54994;BME280;40891;47.242;8.648;2023-03-19T07:19:54;96321.25;;;13.40;61.59
54994;BME280;40891;47.242;8.648;2023-03-19T07:22:19;96312.22;;;13.45;60.39
54994;BME280;40891;47.242;8.648;2023-03-19T07:24:45;96311.63;;;13.41;59.57
54994;BME280;40891;47.242;8.648;2023-03-19T07:27:11;96314.69;;;13.52;60.17
54994;BME280;40891;47.242;8.648;2023-03-19T07:29:42;96318.13;;;13.47;61.04
54994;BME280;40891;47.242;8.648;2023-03-19T07:32:09;96319.66;;;13.48;60.79
54994;BME280;40891;47.242;8.648;2023-03-19T07:34:34;96315.81;;;13.70;61.66
54994;BME280;40891;47.242;8.648;2023-03-19T07:37:00;96313.78;;;13.94;59.51
54994;BME280;40891;47.242;8.648;2023-03-19T07:39:25;96320.13;;;14.18;58.93
54994;BME280;40891;47.242;8.648;2023-03-19T07:41:51;96313.38;;;14.48;56.61
54994;BME280;40891;47.242;8.648;2023-03-19T07:44:16;96315.72;;;14.93;55.39
54994;BME280;40891;47.242;8.648;2023-03-19T07:46:42;96310.28;;;15.19;51.35
54994;BME280;40891;47.242;8.648;2023-03-19T07:49:07;96310.16;;;15.57;51.78
54994;BME280;40891;47.242;8.648;2023-03-19T07:51:33;96313.13;;;15.69;50.76
54994;BME280;40891;47.242;8.648;2023-03-19T07:53:59;96311.75;;;15.64;49.98
54994;BME280;40891;47.242;8.648;2023-03-19T07:56:24;96313.16;;;15.39;51.42
54994;BME280;40891;47.242;8.648;2023-03-19T07:58:49;96314.84;;;15.17;51.04
54994;BME280;40891;47.242;8.648;2023-03-19T08:01:16;96320.75;;;14.89;51.96
54994;BME280;40891;47.242;8.648;2023-03-19T08:03:41;96318.22;;;14.77;52.12
54994;BME280;40891;47.242;8.648;2023-03-19T08:06:07;96316.69;;;14.76;51.93
54994;BME280;40891;47.242;8.648;2023-03-19T08:08:32;96311.50;;;14.83;52.15
54994;BME280;40891;47.242;8.648;2023-03-19T08:10:59;96309.84;;;14.77;52.93
54994;BME280;40891;47.242;8.648;2023-03-19T08:13:25;96312.84;;;14.73;52.61
54994;BME280;40891;47.242;8.648;2023-03-19T08:15:51;96313.31;;;14.57;52.30
54994;BME280;40891;47.242;8.648;2023-03-19T08:18:18;96312.03;;;14.58;52.22
54994;BME280;40891;47.242;8.648;2023-03-19T08:20:44;96322.75;;;14.45;53.08
54994;BME280;40891;47.242;8.648;2023-03-19T08:23:11;96324.69;;;14.54;52.58
54994;BME280;40891;47.242;8.648;2023-03-19T08:25:37;96327.41;;;14.92;51.27
54994;BME280;40891;47.242;8.648;2023-03-19T08:28:03;96315.59;;;15.32;50.73
54994;BME280;40891;47.242;8.648;2023-03-19T08:30:29;96315.16;;;15.68;48.52
54994;BME280;40891;47.242;8.648;2023-03-19T08:32:55;96317.41;;;16.04;48.32
54994;BME280;40891;47.242;8.648;2023-03-19T08:35:20;96309.00;;;16.24;46.07
54994;BME280;40891;47.242;8.648;2023-03-19T08:37:46;96312.00;;;16.21;47.26
54994;BME280;40891;47.242;8.648;2023-03-19T08:40:11;96304.50;;;16.53;45.16
54994;BME280;40891;47.242;8.648;2023-03-19T08:42:37;96303.19;;;16.74;45.39
54994;BME280;40891;47.242;8.648;2023-03-19T08:45:10;96300.94;;;17.04;44.51
54994;BME280;40891;47.242;8.648;2023-03-19T08:47:36;96292.06;;;17.47;42.82
54994;BME280;40891;47.242;8.648;2023-03-19T08:50:02;96294.56;;;18.19;41.81
54994;BME280;40891;47.242;8.648;2023-03-19T08:52:28;96298.47;;;18.44;40.85
54994;BME280;40891;47.242;8.648;2023-03-19T08:54:53;96299.38;;;18.77;38.88
54994;BME280;40891;47.242;8.648;2023-03-19T08:57:19;96298.63;;;18.88;37.25
54994;BME280;40891;47.242;8.648;2023-03-19T08:59:45;96302.97;;;18.83;39.28
54994;BME280;40891;47.242;8.648;2023-03-19T09:02:11;96301.47;;;19.05;37.84
54994;BME280;40891;47.242;8.648;2023-03-19T09:04:40;96308.63;;;18.94;38.73
54994;BME280;40891;47.242;8.648;2023-03-19T09:07:05;96306.03;;;18.91;38.34
54994;BME280;40891;47.242;8.648;2023-03-19T09:09:30;96301.44;;;18.93;38.85
54994;BME280;40891;47.242;8.648;2023-03-19T09:11:56;96298.16;;;19.12;37.16
54994;BME280;40891;47.242;8.648;2023-03-19T09:14:22;96303.25;;;19.02;37.12
54994;BME280;40891;47.242;8.648;2023-03-19T09:16:47;96303.50;;;19.04;37.27
54994;BME280;40891;47.242;8.648;2023-03-19T09:19:13;96291.09;;;20.12;36.38
54994;BME280;40891;47.242;8.648;2023-03-19T09:21:39;96294.53;;;20.52;35.13
54994;BME280;40891;47.242;8.648;2023-03-19T09:24:05;96297.47;;;20.81;35.06
54994;BME280;40891;47.242;8.648;2023-03-19T09:26:31;96286.75;;;21.99;32.90
54994;BME280;40891;47.242;8.648;2023-03-19T09:28:57;96289.34;;;22.82;31.25
54994;BME280;40891;47.242;8.648;2023-03-19T09:31:23;96279.97;;;24.14;27.97
54994;BME280;40891;47.242;8.648;2023-03-19T09:33:49;96275.78;;;25.35;26.52
54994;BME280;40891;47.242;8.648;2023-03-19T09:36:14;96273.47;;;25.96;25.22
54994;BME280;40891;47.242;8.648;2023-03-19T09:38:40;96278.22;;;25.31;25.86
54994;BME280;40891;47.242;8.648;2023-03-19T09:41:13;96273.28;;;24.38;27.09
54994;BME280;40891;47.242;8.648;2023-03-19T09:43:59;96274.22;;;24.80;27.11
54994;BME280;40891;47.242;8.648;2023-03-19T09:46:31;96272.72;;;25.67;25.46
54994;BME280;40891;47.242;8.648;2023-03-19T09:51:57;96259.28;;;26.03;25.16
54994;BME280;40891;47.242;8.648;2023-03-19T09:54:31;96260.91;;;26.12;24.99
54994;BME280;40891;47.242;8.648;2023-03-19T09:56:57;96261.81;;;26.35;25.50
54994;BME280;40891;47.242;8.648;2023-03-19T09:59:25;96252.69;;;27.23;24.04
54994;BME280;40891;47.242;8.648;2023-03-19T10:01:57;96255.59;;;27.46;22.93
54994;BME280;40891;47.242;8.648;2023-03-19T10:04:33;96250.25;;;28.88;22.29
54994;BME280;40891;47.242;8.648;2023-03-19T10:07:11;96244.06;;;29.39;21.58
54994;BME280;40891;47.242;8.648;2023-03-19T10:10:02;96234.72;;;30.29;20.56
54994;BME280;40891;47.242;8.648;2023-03-19T10:15:27;96242.38;;;29.93;20.88
54994;BME280;40891;47.242;8.648;2023-03-19T10:18:07;96244.91;;;28.37;22.88
54994;BME280;40891;47.242;8.648;2023-03-19T10:20:57;96246.47;;;26.89;23.35
54994;BME280;40891;47.242;8.648;2023-03-19T10:23:48;96249.81;;;25.80;25.75
54994;BME280;40891;47.242;8.648;2023-03-19T10:26:17;96263.09;;;24.82;25.54
54994;BME280;40891;47.242;8.648;2023-03-19T10:28:45;96254.16;;;24.25;26.81
54994;BME280;40891;47.242;8.648;2023-03-19T10:31:36;96254.94;;;23.42;27.56
54994;BME280;40891;47.242;8.648;2023-03-19T10:34:27;96253.28;;;23.15;28.29
54994;BME280;40891;47.242;8.648;2023-03-19T10:37:02;96240.69;;;24.52;27.76
54994;BME280;40891;47.242;8.648;2023-03-19T10:39:32;96239.22;;;24.72;27.48
54994;BME280;40891;47.242;8.648;2023-03-19T10:44:49;96239.38;;;24.40;26.60
54994;BME280;40891;47.242;8.648;2023-03-19T10:47:16;96247.50;;;24.10;27.29
54994;BME280;40891;47.242;8.648;2023-03-19T10:49:44;96238.31;;;23.33;28.89
54994;BME280;40891;47.242;8.648;2023-03-19T10:52:17;96243.06;;;22.74;29.94
54994;BME280;40891;47.242;8.648;2023-03-19T10:54:44;96237.31;;;22.24;31.75
54994;BME280;40891;47.242;8.648;2023-03-19T10:57:24;96239.63;;;22.01;31.54
54994;BME280;40891;47.242;8.648;2023-03-19T10:59:50;96245.78;;;21.51;32.68
54994;BME280;40891;47.242;8.648;2023-03-19T11:02:19;96246.81;;;21.24;31.93
54994;BME280;40891;47.242;8.648;2023-03-19T11:04:45;96249.25;;;21.09;32.71
54994;BME280;40891;47.242;8.648;2023-03-19T11:07:19;96254.00;;;21.25;32.32
54994;BME280;40891;47.242;8.648;2023-03-19T11:09:47;96245.31;;;21.47;32.38
54994;BME280;40891;47.242;8.648;2023-03-19T11:12:31;96238.59;;;21.50;33.07
54994;BME280;40891;47.242;8.648;2023-03-19T11:14:59;96232.03;;;21.91;32.02
54994;BME280;40891;47.242;8.648;2023-03-19T11:17:45;96233.34;;;22.70;30.25
54994;BME280;40891;47.242;8.648;2023-03-19T11:22:40;96216.34;;;23.33;31.11
54994;BME280;40891;47.242;8.648;2023-03-19T11:25:18;96221.44;;;23.66;30.06
54994;BME280;40891;47.242;8.648;2023-03-19T11:27:58;96211.97;;;24.29;29.26
54994;BME280;40891;47.242;8.648;2023-03-19T11:30:30;96211.66;;;24.67;28.07
54994;BME280;40891;47.242;8.648;2023-03-19T11:43:43;96216.88;;;24.03;29.65
54994;BME280;40891;47.242;8.648;2023-03-19T11:54:04;96208.59;;;22.52;30.96
54994;BME280;40891;47.242;8.648;2023-03-19T11:56:37;96206.13;;;22.43;32.03
54994;BME280;40891;47.242;8.648;2023-03-19T11:59:08;96198.38;;;22.06;32.00
54994;BME280;40891;47.242;8.648;2023-03-19T12:02:15;96201.16;;;22.11;32.23
54994;BME280;40891;47.242;8.648;2023-03-19T12:05:16;96195.03;;;21.83;32.63
54994;BME280;40891;47.242;8.648;2023-03-19T12:07:55;96203.41;;;21.46;32.82
54994;BME280;40891;47.242;8.648;2023-03-19T12:10:49;96192.00;;;21.27;32.90
54994;BME280;40891;47.242;8.648;2023-03-19T12:16:38;96189.59;;;22.09;31.74
54994;BME280;40891;47.242;8.648;2023-03-19T12:19:31;96187.28;;;22.08;31.44
54994;BME280;40891;47.242;8.648;2023-03-19T12:22:18;96191.09;;;21.92;31.75
54994;BME280;40891;47.242;8.648;2023-03-19T12:25:16;96182.56;;;21.67;32.58
54994;BME280;40891;47.242;8.648;2023-03-19T12:28:25;96185.94;;;21.18;33.69
54994;BME280;40891;47.242;8.648;2023-03-19T12:33:39;96186.78;;;20.77;33.09
54994;BME280;40891;47.242;8.648;2023-03-19T12:36:11;96190.19;;;20.65;34.90
54994;BME280;40891;47.242;8.648;2023-03-19T12:38:45;96186.38;;;20.92;35.46
54994;BME280;40891;47.242;8.648;2023-03-19T12:41:18;96196.13;;;20.61;34.79
54994;BME280;40891;47.242;8.648;2023-03-19T12:46:38;96185.66;;;20.51;35.90
54994;BME280;40891;47.242;8.648;2023-03-19T12:49:24;96195.16;;;20.01;35.78
54994;BME280;40891;47.242;8.648;2023-03-19T12:51:58;96201.22;;;20.16;36.54
54994;BME280;40891;47.242;8.648;2023-03-19T12:54:33;96200.72;;;20.23;37.23
54994;BME280;40891;47.242;8.648;2023-03-19T12:57:13;96192.44;;;20.37;36.10
54994;BME280;40891;47.242;8.648;2023-03-19T12:59:43;96178.97;;;20.89;36.34
54994;BME280;40891;47.242;8.648;2023-03-19T13:02:34;96185.59;;;20.62;36.01
54994;BME280;40891;47.242;8.648;2023-03-19T13:10:41;96187.25;;;19.94;38.08
54994;BME280;40891;47.242;8.648;2023-03-19T13:15:58;96191.22;;;19.58;39.34
54994;BME280;40891;47.242;8.648;2023-03-19T13:19:29;96191.75;;;19.51;40.15
54994;BME280;40891;47.242;8.648;2023-03-19T13:21:29;96193.25;;;19.57;40.55
54994;BME280;40891;47.242;8.648;2023-03-19T13:26:28;96193.16;;;19.91;39.41
54994;BME280;40891;47.242;8.648;2023-03-19T13:28:59;96184.38;;;20.00;39.19
54994;BME280;40891;47.242;8.648;2023-03-19T13:31:26;96175.34;;;20.12;39.26
54994;BME280;40891;47.242;8.648;2023-03-19T13:34:00;96182.25;;;19.54;40.04
54994;BME280;40891;47.242;8.648;2023-03-19T13:36:30;96183.13;;;19.95;38.90
54994;BME280;40891;47.242;8.648;2023-03-19T13:39:00;96184.34;;;20.05;39.38
54994;BME280;40891;47.242;8.648;2023-03-19T13:46:55;96186.47;;;19.99;40.09
54994;BME280;40891;47.242;8.648;2023-03-19T13:49:21;96197.91;;;19.44;41.21
54994;BME280;40891;47.242;8.648;2023-03-19T13:51:49;96192.03;;;19.36;41.81
54994;BME280;40891;47.242;8.648;2023-03-19T13:54:17;96202.56;;;18.91;43.15
54994;BME280;40891;47.242;8.648;2023-03-19T13:59:37;96203.88;;;17.87;46.54
54994;BME280;40891;47.242;8.648;2023-03-19T14:05:00;96207.19;;;17.01;48.42
54994;BME280;40891;47.242;8.648;2023-03-19T14:07:34;96213.03;;;16.66;49.55
54994;BME280;40891;47.242;8.648;2023-03-19T14:10:13;96211.50;;;16.40;50.11
54994;BME280;40891;47.242;8.648;2023-03-19T14:12:42;96211.59;;;16.25;52.59